This is the latest recevied weather packets stored in our database for station/object KD5FHA. If no packets are shown the sender has not sent any weather packets the latest 1 day(s).
| Time | Temp. | Humidity | Pressure | Rain* | Wind** | Luminosity | Snow |
|---|---|---|---|---|---|---|---|
| 1778005051 | 28.33° C | 69% | 1006.5 hPa | 0 mm | 1.79 m/s, 205° | 861 W/m² | - |
| 1778004749 | 28.33° C | 69% | 1006.2 hPa | 0 mm | 0.89 m/s, 180° | 684 W/m² | - |
| 1778004445 | 27.78° C | 69% | 1006.2 hPa | 0 mm | 5.36 m/s, 211° | 545 W/m² | - |
| 1778004142 | 28.33° C | 68% | 1006.2 hPa | 0 mm | 4.92 m/s, 213° | 661 W/m² | - |
| 1778003838 | 28.33° C | 69% | 1006.4 hPa | 0 mm | 1.34 m/s, 190° | 524 W/m² | - |
| 1778003535 | 28.33° C | 68% | 1006.5 hPa | 0 mm | 3.13 m/s, 221° | 632 W/m² | - |
| 1778003231 | 27.78° C | 68% | 1006.4 hPa | 0 mm | 4.92 m/s, 218° | 596 W/m² | - |
| 1778002928 | 27.78° C | 70% | 1006.4 hPa | 0 mm | 1.34 m/s, 175° | 883 W/m² | - |
| 1778002624 | 27.22° C | 70% | 1006.4 hPa | 0 mm | 4.02 m/s, 183° | 582 W/m² | - |
| 1778002321 | 27.78° C | 69% | 1006.5 hPa | 0 mm | 3.58 m/s, 210° | 498 W/m² | - |
| 1778002018 | 27.78° C | 70% | 1006.3 hPa | 0 mm | 3.13 m/s, 198° | 582 W/m² | - |
| 1778001715 | 27.78° C | 70% | 1006.4 hPa | 0 mm | 2.24 m/s, 207° | 573 W/m² | - |
| 1778001415 | 27.22° C | 70% | 1006.4 hPa | 0 mm | 5.81 m/s, 220° | 674 W/m² | - |
| 1778001112 | 27.22° C | 71% | 1006.3 hPa | 0 mm | 2.68 m/s, 198° | 492 W/m² | - |
| 1778000809 | 27.22° C | 71% | 1006.3 hPa | 0 mm | 2.24 m/s, 149° | 581 W/m² | - |
| 1778000506 | 26.67° C | 72% | 1006.4 hPa | 0 mm | 4.02 m/s, 202° | 488 W/m² | - |
| 1778000206 | 26.67° C | 71% | 1006.3 hPa | 0 mm | 5.36 m/s, 207° | 459 W/m² | - |
| 1777999902 | 26.67° C | 71% | 1006 hPa | 0 mm | 5.81 m/s, 202° | 404 W/m² | - |
| 1777999598 | 26.67° C | 71% | 1006.2 hPa | 0 mm | 5.36 m/s, 192° | 437 W/m² | - |
| 1777999296 | 26.67° C | 72% | 1006.1 hPa | 0 mm | 5.36 m/s, 209° | 458 W/m² | - |
| 1777998994 | 26.67° C | 73% | 1005.9 hPa | 0 mm | 6.26 m/s, 206° | 610 W/m² | - |
| 1777998691 | 26.11° C | 73% | 1006 hPa | 0 mm | 5.36 m/s, 214° | 504 W/m² | - |
| 1777998388 | 26.67° C | 73% | 1006 hPa | 0 mm | 4.02 m/s, 204° | 555 W/m² | - |
| 1777998086 | 26.11° C | 73% | 1006 hPa | 0 mm | 7.6 m/s, 202° | 583 W/m² | - |
| 1777997783 | 26.11° C | 73% | 1006.1 hPa | 0 mm | 7.15 m/s, 209° | 412 W/m² | - |
* Rain latest hour (hover to see other rain measurements)
** Current wind speed in m/s (hover to see current wind gust speed)